Time;durP1;ratioP1;P1;durP2;ratioP2;P2;SDS_P1;SDS_P2;PMS_P1;PMS_P2;Temp;Humidity;BMP_temperature;BMP_pressure;BME280_temperature;BME280_humidity;BME280_pressure;Samples;Min_cycle;Max_cycle;Signal;HPM_P1;HPM_P2
2023/05/19 00:01:17;;;;;;;1.63;0.70;;;13.50;99.90;;;;;;5116278;28;20701;-51
2023/05/19 00:03:52;;;;;;;3.45;0.68;;;13.60;99.90;;;;;;5115844;28;20424;-50
2023/05/19 00:06:24;;;;;;;2.20;0.70;;;13.50;99.90;;;;;;5115775;28;20460;-48
2023/05/19 00:08:56;;;;;;;1.10;0.60;;;13.50;99.90;;;;;;5116308;28;20497;-48
2023/05/19 00:11:25;;;;;;;1.08;0.70;;;13.50;99.90;;;;;;5117264;28;20412;-47
2023/05/19 00:13:53;;;;;;;1.15;0.60;;;13.60;99.90;;;;;;5117392;28;20435;-50
2023/05/19 00:16:21;;;;;;;1.20;0.70;;;13.60;99.90;;;;;;5117592;28;20502;-53
2023/05/19 00:18:48;;;;;;;2.58;0.60;;;13.70;99.90;;;;;;5116942;28;20427;-49
2023/05/19 00:21:16;;;;;;;1.90;0.60;;;13.60;99.90;;;;;;5116677;28;20420;-51
2023/05/19 00:23:44;;;;;;;1.60;0.60;;;13.60;99.90;;;;;;5117124;28;20431;-51
2023/05/19 00:26:11;;;;;;;1.90;0.70;;;13.50;99.90;;;;;;5117062;28;20412;-47
2023/05/19 00:28:38;;;;;;;1.70;0.60;;;13.60;99.90;;;;;;5116893;28;20428;-48
2023/05/19 00:31:06;;;;;;;1.48;0.60;;;13.70;99.90;;;;;;5116776;28;20413;-50
2023/05/19 00:33:33;;;;;;;1.45;0.60;;;13.60;99.90;;;;;;5116954;28;20428;-50
2023/05/19 00:36:02;;;;;;;1.30;0.75;;;13.70;99.90;;;;;;5116911;28;20819;-48
2023/05/19 00:38:30;;;;;;;1.20;0.60;;;13.70;99.90;;;;;;5115196;28;20420;-51
2023/05/19 00:40:58;;;;;;;1.10;0.60;;;13.60;99.90;;;;;;5115121;28;20496;-52
2023/05/19 00:43:26;;;;;;;0.93;0.60;;;13.60;99.90;;;;;;5114929;28;20433;-51
2023/05/19 00:45:53;;;;;;;1.05;0.60;;;13.60;99.90;;;;;;5115121;28;20419;-50
2023/05/19 00:48:20;;;;;;;1.90;0.60;;;13.50;99.90;;;;;;5115107;28;20431;-48
2023/05/19 00:50:49;;;;;;;3.00;0.60;;;13.50;99.90;;;;;;5115269;28;20420;-51
2023/05/19 00:53:18;;;;;;;1.80;0.60;;;13.60;99.90;;;;;;5115731;28;20431;-50
2023/05/19 00:55:48;;;;;;;1.40;0.53;;;13.70;99.90;;;;;;5116822;28;20416;-47
2023/05/19 00:58:17;;;;;;;1.30;0.70;;;13.60;99.90;;;;;;5116664;28;20420;-50
2023/05/19 01:00:45;;;;;;;1.40;0.70;;;13.50;99.90;;;;;;5116251;28;20416;-46
2023/05/19 01:03:12;;;;;;;2.10;0.70;;;13.40;99.90;;;;;;5116037;28;20434;-51
2023/05/19 01:05:40;;;;;;;1.92;0.70;;;13.10;99.90;;;;;;5116142;28;20840;-48
2023/05/19 01:08:08;;;;;;;2.20;0.60;;;13.00;99.90;;;;;;5116025;28;20789;-50
2023/05/19 01:10:35;;;;;;;0.80;0.60;;;13.20;99.90;;;;;;5116185;28;20420;-49
2023/05/19 01:13:03;;;;;;;1.50;0.70;;;13.30;99.90;;;;;;5116123;28;20927;-49
2023/05/19 01:15:37;;;;;;;1.70;0.60;;;13.40;99.90;;;;;;5116523;28;20412;-50
2023/05/19 01:18:11;;;;;;;1.17;0.63;;;13.40;99.90;;;;;;5116392;28;20708;-52
2023/05/19 01:20:45;;;;;;;1.80;0.60;;;13.30;99.90;;;;;;5115643;28;20423;-49
2023/05/19 01:23:35;;;;;;;1.77;0.70;;;13.10;99.90;;;;;;5115766;28;20438;-49
2023/05/19 01:26:35;;;;;;;0.88;0.60;;;13.10;99.90;;;;;;5116088;28;20416;-49
2023/05/19 01:29:27;;;;;;;1.00;0.67;;;13.20;99.90;;;;;;5110996;28;20785;-50
2023/05/19 01:31:58;;;;;;;2.20;0.60;;;13.30;99.90;;;;;;5115272;28;20434;-48
2023/05/19 01:34:27;;;;;;;1.60;0.60;;;13.30;99.90;;;;;;5115892;28;20444;-48
2023/05/19 01:36:55;;;;;;;1.23;0.60;;;13.40;99.90;;;;;;5115495;28;20416;-48
2023/05/19 01:39:23;;;;;;;1.20;0.60;;;13.40;99.90;;;;;;5115533;28;20429;-46
2023/05/19 01:41:52;;;;;;;1.60;0.60;;;13.50;99.90;;;;;;5114477;28;20416;-49
2023/05/19 01:44:20;;;;;;;1.20;0.50;;;13.60;99.90;;;;;;5113829;28;20831;-50
2023/05/19 01:46:48;;;;;;;1.40;0.60;;;13.50;99.90;;;;;;5115170;28;20421;-46
2023/05/19 01:49:17;;;;;;;1.20;0.60;;;13.50;99.90;;;;;;5115329;28;20526;-51
2023/05/19 01:51:44;;;;;;;1.25;0.50;;;13.60;99.90;;;;;;5115372;28;20420;-49
2023/05/19 01:54:11;;;;;;;0.90;0.60;;;13.50;99.90;;;;;;5115877;28;20750;-50
2023/05/19 01:56:52;;;;;;;1.85;0.65;;;13.50;99.90;;;;;;5115393;28;20730;-47
2023/05/19 01:59:37;;;;;;;0.98;0.60;;;13.40;99.90;;;;;;5115449;28;20481;-50
2023/05/19 02:02:10;;;;;;;1.40;0.65;;;13.40;99.90;;;;;;5115479;28;20415;-51
2023/05/19 02:04:43;;;;;;;0.90;0.60;;;13.40;99.90;;;;;;5114812;28;20426;-52
2023/05/19 02:07:17;;;;;;;1.10;0.70;;;13.40;99.90;;;;;;5115077;28;20423;-51
2023/05/19 02:09:53;;;;;;;2.30;0.60;;;13.40;99.90;;;;;;5115281;28;20424;-48
2023/05/19 02:12:25;;;;;;;1.17;0.60;;;13.40;99.90;;;;;;5115483;28;20443;-49
2023/05/19 02:14:59;;;;;;;1.77;0.60;;;13.50;99.90;;;;;;5115086;28;20721;-52
2023/05/19 02:17:31;;;;;;;1.20;0.60;;;13.60;99.90;;;;;;5115587;28;20825;-46
2023/05/19 02:20:00;;;;;;;0.90;0.50;;;13.60;99.90;;;;;;5115195;28;20723;-50
2023/05/19 02:22:27;;;;;;;1.10;0.60;;;13.50;99.90;;;;;;5115137;28;20424;-50
2023/05/19 02:24:55;;;;;;;0.95;0.60;;;13.40;99.90;;;;;;5114904;28;20508;-50
2023/05/19 02:27:22;;;;;;;1.05;0.60;;;13.40;99.90;;;;;;5115058;28;20420;-49
2023/05/19 02:29:49;;;;;;;1.42;0.70;;;13.40;99.90;;;;;;5115364;28;20420;-52
2023/05/19 02:32:17;;;;;;;1.30;0.60;;;13.30;99.90;;;;;;5115268;28;20423;-52
2023/05/19 02:34:45;;;;;;;1.70;0.60;;;13.20;99.90;;;;;;5114696;28;20843;-52
2023/05/19 02:37:13;;;;;;;2.97;0.80;;;13.10;99.90;;;;;;5115080;28;20893;-48
2023/05/19 02:39:40;;;;;;;3.00;0.70;;;13.00;99.90;;;;;;5115033;28;20412;-52
2023/05/19 02:42:08;;;;;;;1.50;0.70;;;12.90;99.90;;;;;;5114593;28;20415;-54
2023/05/19 02:44:35;;;;;;;1.60;0.80;;;12.90;99.90;;;;;;5118314;28;20474;-50
2023/05/19 02:47:02;;;;;;;1.90;0.60;;;13.00;99.90;;;;;;5118904;28;20476;-49
2023/05/19 02:49:34;;;;;;;2.28;0.75;;;12.90;99.90;;;;;;5119471;28;20428;-48
2023/05/19 02:52:02;;;;;;;1.20;0.60;;;12.90;99.90;;;;;;5117532;28;20862;-50
2023/05/19 02:54:31;;;;;;;3.00;0.80;;;13.00;99.90;;;;;;5117359;28;20489;-49
2023/05/19 02:56:58;;;;;;;1.80;0.70;;;12.90;99.90;;;;;;5115858;28;20416;-49
2023/05/19 02:59:25;;;;;;;2.00;0.80;;;13.00;99.90;;;;;;5115758;28;20424;-51
2023/05/19 03:01:55;;;;;;;2.28;0.70;;;12.90;99.90;;;;;;5116323;28;20419;-51
2023/05/19 03:04:22;;;;;;;1.10;0.80;;;13.00;99.90;;;;;;5116130;28;20419;-48
2023/05/19 03:06:49;;;;;;;1.50;0.70;;;13.10;99.90;;;;;;5117616;28;20693;-49
2023/05/19 03:09:16;;;;;;;1.20;0.70;;;13.00;99.90;;;;;;5117671;28;20447;-53
2023/05/19 03:11:45;;;;;;;0.80;0.60;;;12.90;99.90;;;;;;5118368;28;20424;-50
2023/05/19 03:14:12;;;;;;;1.40;0.70;;;12.90;99.90;;;;;;5117124;28;20869;-49
2023/05/19 03:16:40;;;;;;;1.20;0.70;;;13.00;99.90;;;;;;5117417;28;20421;-52
2023/05/19 03:19:08;;;;;;;2.00;0.70;;;12.80;99.90;;;;;;5117351;28;20444;-52
2023/05/19 03:21:35;;;;;;;1.60;0.70;;;12.70;99.90;;;;;;5117226;28;20657;-52
2023/05/19 03:24:02;;;;;;;1.30;0.70;;;12.70;99.90;;;;;;5117026;28;20428;-52
2023/05/19 03:26:29;;;;;;;1.13;0.60;;;12.60;99.90;;;;;;5116686;28;20419;-48
2023/05/19 03:28:58;;;;;;;2.63;0.70;;;12.70;99.90;;;;;;5116380;28;20443;-52
2023/05/19 03:31:25;;;;;;;2.50;0.70;;;12.60;99.90;;;;;;5116427;28;20488;-48
2023/05/19 03:33:52;;;;;;;1.25;0.80;;;12.50;99.90;;;;;;5116600;28;20428;-48
2023/05/19 03:36:20;;;;;;;2.17;0.70;;;12.50;99.90;;;;;;5115209;28;20408;-48
2023/05/19 03:38:47;;;;;;;1.30;0.70;;;12.40;99.90;;;;;;5115491;28;20477;-47
2023/05/19 03:41:14;;;;;;;2.78;0.80;;;12.40;99.90;;;;;;5116078;28;20739;-50
2023/05/19 03:43:41;;;;;;;2.45;0.70;;;12.40;99.90;;;;;;5117064;28;20847;-49
2023/05/19 03:46:10;;;;;;;1.42;0.70;;;12.40;99.90;;;;;;5116742;28;20420;-52
2023/05/19 03:48:37;;;;;;;1.13;0.68;;;12.40;99.90;;;;;;5116025;28;20432;-52
2023/05/19 03:51:04;;;;;;;1.40;0.70;;;12.50;99.90;;;;;;5116357;28;20866;-49
2023/05/19 03:53:31;;;;;;;1.50;0.80;;;12.50;99.90;;;;;;5116322;28;20446;-49
2023/05/19 03:55:59;;;;;;;2.10;0.70;;;12.60;99.90;;;;;;5116492;28;20417;-51
2023/05/19 03:58:28;;;;;;;1.58;0.70;;;12.70;99.90;;;;;;5117534;28;20428;-49
2023/05/19 04:00:55;;;;;;;1.80;0.70;;;12.70;99.90;;;;;;5115788;28;20784;-49
2023/05/19 04:03:25;;;;;;;1.40;0.80;;;12.70;99.90;;;;;;5115079;28;20473;-50
2023/05/19 04:05:52;;;;;;;1.10;0.60;;;12.70;99.90;;;;;;5117169;28;20506;-53
2023/05/19 04:08:19;;;;;;;2.17;0.70;;;12.70;99.90;;;;;;5116503;28;20424;-48
2023/05/19 04:10:46;;;;;;;2.65;0.80;;;12.70;99.90;;;;;;5115436;28;20736;-50
2023/05/19 04:13:13;;;;;;;2.25;0.80;;;12.80;99.90;;;;;;5116163;28;20424;-49
2023/05/19 04:15:40;;;;;;;2.40;1.00;;;12.80;99.90;;;;;;5115844;28;20427;-50
2023/05/19 04:18:07;;;;;;;2.30;0.70;;;12.80;99.90;;;;;;5115918;28;20522;-46
2023/05/19 04:20:36;;;;;;;1.77;0.75;;;12.80;99.90;;;;;;5114944;28;20425;-52
2023/05/19 04:23:03;;;;;;;1.60;0.70;;;12.70;99.90;;;;;;5116472;28;20436;-50
2023/05/19 04:25:30;;;;;;;2.03;0.70;;;12.60;99.90;;;;;;5116791;28;20427;-50
2023/05/19 04:27:57;;;;;;;1.70;0.80;;;12.40;99.90;;;;;;5117295;28;20701;-52
2023/05/19 04:30:24;;;;;;;1.30;0.70;;;12.20;99.90;;;;;;5115733;28;20848;-49
2023/05/19 04:32:51;;;;;;;2.50;0.70;;;12.30;99.90;;;;;;5115950;28;20447;-52
2023/05/19 04:35:19;;;;;;;1.00;0.70;;;12.40;99.90;;;;;;5116885;28;20705;-49
2023/05/19 04:37:47;;;;;;;3.35;0.80;;;12.60;99.90;;;;;;5117023;28;20789;-49
2023/05/19 04:40:14;;;;;;;1.40;0.70;;;12.60;99.90;;;;;;5115762;28;20893;-52
2023/05/19 04:42:44;;;;;;;3.60;1.17;;;12.60;99.90;;;;;;5115186;28;20862;-52
2023/05/19 04:45:12;;;;;;;1.50;0.80;;;12.30;99.90;;;;;;5115148;28;20756;-50
2023/05/19 04:47:40;;;;;;;2.10;0.80;;;12.20;99.90;;;;;;5115810;28;20424;-50
2023/05/19 04:50:09;;;;;;;2.70;0.90;;;12.20;99.90;;;;;;5114554;28;20522;-51
2023/05/19 04:52:37;;;;;;;1.03;0.70;;;12.30;99.90;;;;;;5116578;28;20428;-47
2023/05/19 04:55:06;;;;;;;1.80;0.80;;;12.20;99.90;;;;;;5116330;28;20897;-50
2023/05/19 04:57:33;;;;;;;1.83;0.80;;;12.20;99.90;;;;;;5116357;28;20482;-48
2023/05/19 05:00:00;;;;;;;1.30;0.80;;;12.30;99.90;;;;;;5114890;28;20835;-47
2023/05/19 05:02:27;;;;;;;1.48;0.70;;;12.30;99.90;;;;;;5114955;28;20844;-47
2023/05/19 05:04:55;;;;;;;3.75;0.80;;;12.40;99.90;;;;;;5116386;28;20450;-48
2023/05/19 05:07:22;;;;;;;1.90;0.73;;;12.50;99.90;;;;;;5114262;28;20477;-46
2023/05/19 05:09:49;;;;;;;1.50;0.70;;;12.60;99.90;;;;;;5113923;28;20435;-49
2023/05/19 05:12:19;;;;;;;2.70;0.70;;;12.80;99.90;;;;;;5114835;28;20431;-48
2023/05/19 05:14:46;;;;;;;1.13;0.70;;;12.80;99.90;;;;;;5115364;28;20416;-48
2023/05/19 05:17:14;;;;;;;2.60;0.80;;;12.90;99.90;;;;;;5114293;28;20420;-50
2023/05/19 05:19:42;;;;;;;2.05;0.80;;;12.90;99.90;;;;;;5113949;28;20649;-51
2023/05/19 05:22:10;;;;;;;1.50;0.80;;;12.70;99.90;;;;;;5114484;28;20843;-50
2023/05/19 05:24:37;;;;;;;1.95;0.80;;;12.50;99.90;;;;;;5113535;28;20416;-51
2023/05/19 05:27:06;;;;;;;2.20;0.80;;;12.50;99.90;;;;;;5112323;28;20416;-50
2023/05/19 05:29:35;;;;;;;2.25;0.80;;;12.40;99.90;;;;;;5114384;28;20424;-50
2023/05/19 05:32:02;;;;;;;1.43;0.80;;;12.30;99.90;;;;;;5113633;28;20855;-46
2023/05/19 05:34:29;;;;;;;3.10;0.90;;;12.20;99.90;;;;;;5114870;28;20435;-51
2023/05/19 05:36:56;;;;;;;1.40;0.80;;;12.10;99.90;;;;;;5113210;28;20469;-51
2023/05/19 05:39:24;;;;;;;3.10;0.90;;;12.40;99.90;;;;;;5114162;28;20488;-52
2023/05/19 05:41:51;;;;;;;1.00;0.70;;;12.50;99.90;;;;;;5115024;28;20420;-47
2023/05/19 05:44:20;;;;;;;1.65;0.80;;;12.60;99.90;;;;;;5114004;28;20746;-51
2023/05/19 05:46:50;;;;;;;2.47;0.70;;;12.60;99.90;;;;;;5113403;28;20511;-50
2023/05/19 05:49:17;;;;;;;2.17;0.80;;;12.60;99.90;;;;;;5112267;28;20432;-49
2023/05/19 05:51:45;;;;;;;1.20;0.80;;;12.90;99.90;;;;;;5114536;28;20452;-52
2023/05/19 05:54:12;;;;;;;1.30;0.80;;;12.90;99.90;;;;;;5115315;28;20431;-49
2023/05/19 05:56:40;;;;;;;1.60;0.70;;;12.90;99.90;;;;;;5113188;28;20507;-53
2023/05/19 05:59:07;;;;;;;2.40;0.75;;;12.90;99.90;;;;;;5113319;28;20428;-53
2023/05/19 06:01:35;;;;;;;0.82;0.70;;;13.10;99.90;;;;;;5110410;28;20424;-50
2023/05/19 06:04:04;;;;;;;1.63;0.70;;;13.20;99.90;;;;;;5109800;28;20424;-50
2023/05/19 06:06:31;;;;;;;2.53;0.90;;;13.00;99.90;;;;;;5109335;28;20420;-51
2023/05/19 06:08:58;;;;;;;1.70;0.90;;;13.10;99.90;;;;;;5107924;28;20432;-52
2023/05/19 06:11:25;;;;;;;1.95;0.80;;;13.20;99.90;;;;;;5097808;28;20738;-53
2023/05/19 06:13:52;;;;;;;1.30;0.70;;;13.40;99.90;;;;;;5098217;28;20432;-53
2023/05/19 06:16:19;;;;;;;2.50;0.80;;;13.30;99.90;;;;;;5099744;28;20871;-51
2023/05/19 06:18:46;;;;;;;2.17;0.80;;;13.20;99.90;;;;;;5095587;28;20436;-53
2023/05/19 06:21:16;;;;;;;2.15;0.80;;;13.10;99.90;;;;;;5096573;28;20421;-49
2023/05/19 06:23:43;;;;;;;1.88;0.70;;;13.20;99.90;;;;;;5096920;28;20777;-53
2023/05/19 06:26:10;;;;;;;2.43;0.80;;;13.50;99.90;;;;;;5097035;28;20442;-48
2023/05/19 06:28:37;;;;;;;1.63;0.80;;;13.60;99.90;;;;;;5094491;28;20429;-50
2023/05/19 06:31:05;;;;;;;1.10;0.70;;;13.70;99.90;;;;;;5094582;28;20830;-48
2023/05/19 06:33:32;;;;;;;1.60;0.80;;;13.80;99.90;;;;;;5095760;28;20426;-52
2023/05/19 06:35:59;;;;;;;1.80;0.80;;;13.70;99.90;;;;;;5096387;28;20414;-52
2023/05/19 06:38:28;;;;;;;2.40;0.90;;;13.40;99.90;;;;;;5097135;28;20532;-51
2023/05/19 06:40:55;;;;;;;1.70;0.73;;;13.50;99.90;;;;;;5097236;28;20436;-49
2023/05/19 06:43:24;;;;;;;2.30;0.90;;;13.50;99.90;;;;;;5093590;28;20841;-51
2023/05/19 06:45:51;;;;;;;1.42;0.80;;;13.60;99.90;;;;;;5093949;28;20461;-54
2023/05/19 06:48:18;;;;;;;1.10;0.77;;;13.60;99.90;;;;;;5094926;28;20447;-54
2023/05/19 06:50:45;;;;;;;2.30;0.82;;;13.90;99.90;;;;;;5093751;28;20886;-50
2023/05/19 06:53:12;;;;;;;1.80;0.90;;;14.10;99.90;;;;;;5093762;28;20426;-53
2023/05/19 06:55:41;;;;;;;2.03;0.90;;;14.10;99.90;;;;;;5093791;28;20417;-53
2023/05/19 06:58:08;;;;;;;2.70;0.80;;;14.20;99.90;;;;;;5093853;28;20741;-53
2023/05/19 07:00:35;;;;;;;2.20;0.90;;;14.20;99.90;;;;;;5095119;28;20899;-54
2023/05/19 07:03:02;;;;;;;1.38;0.80;;;14.40;99.90;;;;;;5095350;28;20465;-52
2023/05/19 07:05:29;;;;;;;3.58;1.00;;;14.60;99.90;;;;;;5097218;28;20414;-53
2023/05/19 07:07:56;;;;;;;2.10;0.90;;;14.80;99.90;;;;;;5096468;28;20432;-54
2023/05/19 07:10:23;;;;;;;1.33;0.80;;;14.80;99.90;;;;;;5096489;28;20430;-52
2023/05/19 07:12:52;;;;;;;2.50;0.90;;;14.90;99.90;;;;;;5094373;28;20430;-51
2023/05/19 07:15:19;;;;;;;1.30;0.70;;;14.70;99.90;;;;;;5092710;28;21015;-53
2023/05/19 07:17:46;;;;;;;1.60;0.68;;;14.70;99.90;;;;;;5094466;28;20422;-49
2023/05/19 07:20:13;;;;;;;2.45;0.80;;;15.00;99.90;;;;;;5097229;28;20418;-48
2023/05/19 07:22:40;;;;;;;2.30;0.80;;;15.00;99.90;;;;;;5094558;28;20421;-51
2023/05/19 07:25:08;;;;;;;1.90;0.80;;;15.10;99.90;;;;;;5093798;28;20428;-51
2023/05/19 07:27:35;;;;;;;2.30;0.85;;;15.30;99.90;;;;;;5095593;28;20433;-54
2023/05/19 07:30:04;;;;;;;2.38;0.70;;;15.40;99.90;;;;;;5093590;28;20434;-48
2023/05/19 07:32:31;;;;;;;3.90;0.80;;;15.40;99.90;;;;;;5095767;28;20437;-50
2023/05/19 07:34:59;;;;;;;1.42;0.85;;;15.20;99.90;;;;;;5093778;28;20990;-49
2023/05/19 07:37:26;;;;;;;1.10;0.80;;;15.20;99.90;;;;;;5092940;28;20418;-52
2023/05/19 07:39:53;;;;;;;1.30;0.80;;;15.20;99.90;;;;;;5094139;28;20460;-52
2023/05/19 07:42:20;;;;;;;1.60;0.70;;;15.50;99.90;;;;;;5093847;28;20825;-52
2023/05/19 07:44:47;;;;;;;2.35;0.90;;;15.50;99.90;;;;;;5094817;28;21064;-51
2023/05/19 07:47:15;;;;;;;3.00;0.80;;;15.70;99.90;;;;;;5095415;28;20443;-51
2023/05/19 07:49:42;;;;;;;2.30;0.70;;;15.90;99.90;;;;;;5095373;28;20422;-51
2023/05/19 07:52:09;;;;;;;1.20;0.80;;;16.10;99.90;;;;;;5096036;28;20410;-51
2023/05/19 07:54:37;;;;;;;2.00;0.80;;;16.20;99.90;;;;;;5096311;28;20421;-53
2023/05/19 07:57:04;;;;;;;1.52;0.80;;;16.00;99.90;;;;;;5095623;28;20425;-49
2023/05/19 07:59:31;;;;;;;1.50;0.85;;;16.10;99.90;;;;;;5096086;28;20809;-50
2023/05/19 08:01:59;;;;;;;1.08;0.65;;;16.10;99.90;;;;;;5095170;28;20425;-54
2023/05/19 08:04:27;;;;;;;1.63;0.80;;;16.10;99.90;;;;;;5094824;28;20434;-53
2023/05/19 08:06:54;;;;;;;2.10;0.90;;;16.00;99.90;;;;;;5093257;28;20432;-50
2023/05/19 08:09:21;;;;;;;1.70;0.90;;;16.10;99.90;;;;;;5093674;28;20605;-51
2023/05/19 08:11:49;;;;;;;1.90;0.80;;;16.00;99.90;;;;;;5093107;28;20457;-51
2023/05/19 08:14:16;;;;;;;1.25;0.70;;;15.80;99.90;;;;;;5093689;28;20722;-50
2023/05/19 08:16:44;;;;;;;2.97;0.90;;;15.90;99.90;;;;;;5093689;28;20475;-50
2023/05/19 08:19:11;;;;;;;1.50;0.60;;;15.90;99.90;;;;;;5092942;28;20436;-52
2023/05/19 08:21:41;;;;;;;1.10;0.93;;;15.70;99.90;;;;;;5092800;28;20417;-53
2023/05/19 08:24:08;;;;;;;1.77;0.80;;;15.60;99.90;;;;;;5094785;28;20536;-52
2023/05/19 08:26:35;;;;;;;2.35;0.70;;;15.60;99.90;;;;;;5094579;28;20422;-56
2023/05/19 08:29:02;;;;;;;1.90;0.80;;;15.70;99.90;;;;;;5095085;28;20426;-55
2023/05/19 08:31:29;;;;;;;1.00;0.70;;;15.70;99.90;;;;;;5093508;28;20841;-48
2023/05/19 08:33:56;;;;;;;1.10;0.60;;;15.80;99.90;;;;;;5091982;28;20418;-50
2023/05/19 08:36:23;;;;;;;3.08;0.80;;;15.90;99.90;;;;;;5092129;28;20742;-50
2023/05/19 08:38:52;;;;;;;1.60;0.70;;;15.90;99.90;;;;;;5092482;28;20433;-55
2023/05/19 08:41:20;;;;;;;2.90;0.80;;;16.00;99.90;;;;;;5093021;28;20912;-54
2023/05/19 08:43:47;;;;;;;1.20;0.80;;;16.10;99.90;;;;;;5093373;28;20706;-55
2023/05/19 08:46:15;;;;;;;2.30;0.80;;;16.00;99.90;;;;;;5092610;28;20485;-54
2023/05/19 08:48:44;;;;;;;1.90;0.70;;;15.80;99.90;;;;;;5092063;28;20537;-49
2023/05/19 08:51:28;;;;;;;1.60;0.70;;;15.90;99.90;;;;;;5091731;28;20670;-49
2023/05/19 08:54:02;;;;;;;1.40;0.80;;;15.80;99.90;;;;;;5090936;28;20790;-61
2023/05/19 08:56:30;;;;;;;2.40;0.70;;;15.80;99.90;;;;;;5090783;28;20421;-61
2023/05/19 08:58:59;;;;;;;2.60;0.90;;;15.90;99.90;;;;;;5091732;28;20965;-61
2023/05/19 09:01:29;;;;;;;2.45;0.90;;;15.90;99.90;;;;;;5091273;28;20500;-61
2023/05/19 09:03:56;;;;;;;2.40;0.75;;;16.00;99.90;;;;;;5090567;28;20418;-61
2023/05/19 09:06:23;;;;;;;1.80;0.70;;;16.20;99.90;;;;;;5091940;28;20510;-61
2023/05/19 09:08:50;;;;;;;2.25;0.80;;;16.30;99.90;;;;;;5094713;28;20426;-60
2023/05/19 09:11:20;;;;;;;1.90;0.70;;;16.40;99.90;;;;;;5094177;28;20426;-61
2023/05/19 09:13:48;;;;;;;1.80;0.80;;;16.40;99.90;;;;;;5091476;28;20487;-60
2023/05/19 09:16:16;;;;;;;1.00;0.70;;;16.40;99.90;;;;;;5091824;28;20425;-60
2023/05/19 09:18:54;;;;;;;3.45;0.88;;;16.50;99.90;;;;;;5090206;28;20483;-60
2023/05/19 09:21:29;;;;;;;1.30;0.70;;;16.30;99.90;;;;;;5090644;28;20775;-58
2023/05/19 09:23:57;;;;;;;2.33;0.85;;;16.30;99.90;;;;;;5090321;28;20778;-59
2023/05/19 09:26:36;;;;;;;1.95;0.80;;;16.40;99.90;;;;;;5089870;28;20430;-60
2023/05/19 09:29:10;;;;;;;1.98;0.80;;;16.40;99.90;;;;;;5092915;28;20433;-60
2023/05/19 09:31:37;;;;;;;2.10;0.80;;;16.40;99.90;;;;;;5092105;28;20430;-60
2023/05/19 09:34:04;;;;;;;1.80;0.70;;;16.30;99.90;;;;;;5093125;28;20745;-61
2023/05/19 09:36:31;;;;;;;3.00;0.80;;;16.30;99.90;;;;;;5102488;28;20433;-60
2023/05/19 09:38:58;;;;;;;1.80;0.80;;;16.30;99.90;;;;;;5111361;28;20846;-60
2023/05/19 09:41:27;;;;;;;1.20;0.80;;;16.20;99.90;;;;;;5112036;28;20415;-59
2023/05/19 09:43:55;;;;;;;3.78;0.80;;;16.20;99.90;;;;;;5107057;28;20435;-60
2023/05/19 09:46:27;;;;;;;2.50;0.90;;;16.30;99.90;;;;;;5107761;28;20440;-60
2023/05/19 09:48:57;;;;;;;1.70;1.00;;;16.40;99.90;;;;;;5102066;28;20502;-60
2023/05/19 09:51:24;;;;;;;1.70;0.80;;;16.40;99.90;;;;;;5104600;28;20773;-60
2023/05/19 09:53:53;;;;;;;2.43;0.80;;;16.40;99.90;;;;;;5110516;28;20509;-58
2023/05/19 09:56:22;;;;;;;2.13;0.80;;;16.40;99.90;;;;;;5108075;28;20595;-60
2023/05/19 09:58:51;;;;;;;3.50;0.80;;;16.50;99.90;;;;;;5111188;28;20472;-61
2023/05/19 10:01:19;;;;;;;1.45;0.80;;;16.60;99.90;;;;;;5112437;28;20804;-60
2023/05/19 10:03:46;;;;;;;2.85;0.70;;;16.50;99.90;;;;;;5107076;28;20587;-59
2023/05/19 10:06:15;;;;;;;2.05;0.80;;;16.40;99.90;;;;;;5106647;28;20431;-59
2023/05/19 10:08:43;;;;;;;1.85;0.80;;;16.50;99.90;;;;;;5107801;28;20432;-59
2023/05/19 10:11:22;;;;;;;1.97;0.80;;;16.60;99.90;;;;;;5104567;28;20942;-62
2023/05/19 10:13:52;;;;;;;2.30;0.80;;;16.50;99.90;;;;;;5099636;28;20568;-62
2023/05/19 10:16:20;;;;;;;1.60;0.70;;;16.40;99.90;;;;;;5090581;28;20870;-61
2023/05/19 10:18:49;;;;;;;1.20;0.70;;;16.40;99.90;;;;;;5101488;28;20471;-61
2023/05/19 10:21:17;;;;;;;1.45;0.80;;;16.20;99.90;;;;;;5107329;28;20515;-60
2023/05/19 10:23:44;;;;;;;2.63;0.80;;;16.20;99.90;;;;;;5109559;28;20436;-61
2023/05/19 10:26:12;;;;;;;2.00;0.70;;;16.20;99.90;;;;;;5110184;28;20469;-61
2023/05/19 10:28:43;;;;;;;2.37;0.80;;;16.10;99.90;;;;;;5098144;28;20437;-60
2023/05/19 10:31:17;;;;;;;1.50;0.70;;;16.20;99.90;;;;;;5092170;28;20436;-60
2023/05/19 10:34:00;;;;;;;1.00;0.70;;;16.20;99.90;;;;;;5089285;28;20993;-61
2023/05/19 10:36:45;;;;;;;1.20;0.70;;;16.40;99.90;;;;;;5096750;28;20460;-61
2023/05/19 10:39:17;;;;;;;1.60;0.80;;;16.50;99.90;;;;;;5090361;28;20433;-60
2023/05/19 10:41:53;;;;;;;1.30;0.70;;;16.50;99.90;;;;;;5092108;28;20837;-60
2023/05/19 10:44:34;;;;;;;2.00;0.80;;;16.60;99.90;;;;;;5089914;28;20433;-60
2023/05/19 10:47:06;;;;;;;3.80;0.70;;;16.70;99.90;;;;;;5088435;28;20421;-60
2023/05/19 10:49:35;;;;;;;1.63;0.73;;;16.60;99.90;;;;;;5092004;28;20929;-60
2023/05/19 10:52:02;;;;;;;1.60;0.70;;;16.50;99.90;;;;;;5092047;28;20733;-60
2023/05/19 10:54:42;;;;;;;2.13;1.00;;;16.30;99.90;;;;;;5091673;28;20414;-60
2023/05/19 10:57:15;;;;;;;1.10;0.70;;;16.20;99.90;;;;;;5092046;28;20413;-60
2023/05/19 10:59:44;;;;;;;2.17;0.88;;;16.20;99.90;;;;;;5091943;28;20718;-59
2023/05/19 11:02:39;;;;;;;1.30;0.70;;;16.20;99.90;;;;;;5092408;28;20497;-59
2023/05/19 11:05:13;;;;;;;1.10;0.80;;;16.20;99.90;;;;;;5111158;28;20854;-59
2023/05/19 11:07:43;;;;;;;1.20;1.00;;;16.10;99.90;;;;;;5110072;28;20492;-60
2023/05/19 11:10:11;;;;;;;1.40;0.70;;;16.20;99.90;;;;;;5108421;28;20464;-59
2023/05/19 11:12:42;;;;;;;1.50;0.80;;;16.20;99.90;;;;;;5097636;28;20441;-59
2023/05/19 11:15:12;;;;;;;1.30;0.70;;;16.20;99.90;;;;;;5106000;28;20468;-59
2023/05/19 11:17:42;;;;;;;2.78;0.80;;;16.30;99.90;;;;;;5108067;28;20428;-59
2023/05/19 11:20:22;;;;;;;2.00;0.90;;;16.30;99.90;;;;;;5115588;28;20428;-59
2023/05/19 11:23:04;;;;;;;2.10;0.90;;;16.30;99.90;;;;;;5113576;28;20440;-59
2023/05/19 11:25:45;;;;;;;1.80;0.80;;;16.30;99.90;;;;;;5115548;28;20431;-59
2023/05/19 11:28:13;;;;;;;2.60;0.90;;;16.30;99.90;;;;;;5112084;28;20442;-59
2023/05/19 11:30:42;;;;;;;1.70;0.75;;;16.40;99.90;;;;;;5103140;28;20419;-59
2023/05/19 11:33:12;;;;;;;1.83;0.80;;;16.40;99.90;;;;;;5110874;28;20466;-60
2023/05/19 11:35:39;;;;;;;0.90;0.70;;;16.30;99.90;;;;;;5115192;28;20716;-60
2023/05/19 11:38:07;;;;;;;1.70;0.80;;;16.30;99.90;;;;;;5116497;28;20436;-60
2023/05/19 11:40:34;;;;;;;2.70;0.80;;;16.30;99.90;;;;;;5115732;28;20415;-61
2023/05/19 11:43:01;;;;;;;1.30;0.70;;;16.30;99.90;;;;;;5115559;28;20443;-60
2023/05/19 11:45:31;;;;;;;1.20;0.80;;;16.20;99.90;;;;;;5115737;28;20424;-61
2023/05/19 11:47:58;;;;;;;2.80;0.73;;;16.30;99.90;;;;;;5114962;28;20773;-60
2023/05/19 11:50:27;;;;;;;1.40;0.80;;;16.30;99.90;;;;;;5113769;28;20852;-61
2023/05/19 11:52:55;;;;;;;2.10;0.80;;;16.50;99.90;;;;;;5116342;28;20418;-60
2023/05/19 11:55:24;;;;;;;1.13;0.80;;;16.50;99.90;;;;;;5114695;28;20788;-59
2023/05/19 11:58:00;;;;;;;2.50;0.80;;;16.70;99.90;;;;;;5113337;28;20455;-59
2023/05/19 12:00:28;;;;;;;1.92;0.82;;;16.50;99.90;;;;;;5113040;28;20419;-59
2023/05/19 12:02:55;;;;;;;1.50;0.80;;;16.40;99.90;;;;;;5115011;28;20416;-59
2023/05/19 12:05:24;;;;;;;1.80;0.80;;;16.30;99.90;;;;;;5115232;28;21109;-58
2023/05/19 12:07:53;;;;;;;1.80;0.80;;;16.40;99.90;;;;;;5113612;28;20812;-58
2023/05/19 12:10:23;;;;;;;1.40;0.80;;;16.30;99.90;;;;;;5114810;28;20424;-59
2023/05/19 12:12:51;;;;;;;2.60;0.80;;;16.30;99.90;;;;;;5111115;28;20942;-58
2023/05/19 12:15:20;;;;;;;1.80;0.80;;;16.30;99.90;;;;;;5114604;28;20523;-59
2023/05/19 12:17:50;;;;;;;3.78;0.80;;;16.30;99.90;;;;;;5115479;28;20851;-58
2023/05/19 12:20:17;;;;;;;1.40;0.70;;;16.20;99.90;;;;;;5113531;28;20436;-58
2023/05/19 12:22:44;;;;;;;1.70;0.80;;;16.40;99.90;;;;;;5116044;28;20408;-58
2023/05/19 12:25:13;;;;;;;1.70;0.80;;;16.50;99.90;;;;;;5114942;28;20422;-59
2023/05/19 12:27:43;;;;;;;2.40;0.80;;;16.40;99.90;;;;;;5111709;28;20494;-57
2023/05/19 12:30:11;;;;;;;2.27;0.90;;;16.20;99.90;;;;;;5116009;28;20416;-58
2023/05/19 12:32:39;;;;;;;1.98;0.80;;;16.40;99.90;;;;;;5115659;28;20428;-58
2023/05/19 12:35:07;;;;;;;1.80;0.80;;;16.50;99.90;;;;;;5113096;28;20432;-58
2023/05/19 12:37:35;;;;;;;2.20;0.90;;;16.60;99.90;;;;;;5115352;28;20419;-59
2023/05/19 12:40:03;;;;;;;1.30;0.90;;;16.50;99.90;;;;;;5114140;28;20424;-58
2023/05/19 12:42:31;;;;;;;3.25;0.88;;;16.60;99.90;;;;;;5114700;28;20533;-58
2023/05/19 12:44:59;;;;;;;1.10;0.77;;;16.50;99.90;;;;;;5116056;28;20431;-58
2023/05/19 12:47:32;;;;;;;2.47;0.75;;;16.40;99.90;;;;;;5115505;28;20501;-57
2023/05/19 12:50:02;;;;;;;1.45;0.90;;;16.40;99.90;;;;;;5115710;28;20432;-58
2023/05/19 12:52:30;;;;;;;2.17;1.00;;;16.40;99.90;;;;;;5113551;28;20830;-58
2023/05/19 12:55:00;;;;;;;1.80;0.80;;;16.50;99.90;;;;;;5113291;28;20420;-58
2023/05/19 12:57:34;;;;;;;1.55;0.77;;;16.50;99.90;;;;;;5115043;28;20452;-58